sensor_id;sensor_type;location;lat;lon;timestamp;P1;durP1;ratioP1;P2;durP2;ratioP2
6348;SDS011;3207;42.648;23.406;2023-08-06T00:00:49;1.40;;;1.30;;
6348;SDS011;3207;42.648;23.406;2023-08-06T00:03:16;1.48;;;1.13;;
6348;SDS011;3207;42.648;23.406;2023-08-06T00:05:43;2.00;;;1.10;;
6348;SDS011;3207;42.648;23.406;2023-08-06T00:08:10;1.15;;;0.75;;
6348;SDS011;3207;42.648;23.406;2023-08-06T00:10:36;1.20;;;0.80;;
6348;SDS011;3207;42.648;23.406;2023-08-06T00:13:04;1.25;;;0.70;;
6348;SDS011;3207;42.648;23.406;2023-08-06T00:15:31;0.80;;;0.77;;
6348;SDS011;3207;42.648;23.406;2023-08-06T00:17:58;1.67;;;0.60;;
6348;SDS011;3207;42.648;23.406;2023-08-06T00:20:25;1.25;;;0.90;;
6348;SDS011;3207;42.648;23.406;2023-08-06T00:22:52;2.20;;;0.80;;
6348;SDS011;3207;42.648;23.406;2023-08-06T00:25:19;2.35;;;0.82;;
6348;SDS011;3207;42.648;23.406;2023-08-06T00:27:45;2.72;;;1.08;;
6348;SDS011;3207;42.648;23.406;2023-08-06T00:30:14;1.88;;;0.88;;
6348;SDS011;3207;42.648;23.406;2023-08-06T00:32:40;1.42;;;0.60;;
6348;SDS011;3207;42.648;23.406;2023-08-06T00:35:07;1.30;;;0.77;;
6348;SDS011;3207;42.648;23.406;2023-08-06T00:37:34;1.90;;;0.88;;
6348;SDS011;3207;42.648;23.406;2023-08-06T00:40:01;0.80;;;0.77;;
6348;SDS011;3207;42.648;23.406;2023-08-06T00:42:28;1.25;;;0.80;;
6348;SDS011;3207;42.648;23.406;2023-08-06T00:44:55;2.35;;;0.80;;
6348;SDS011;3207;42.648;23.406;2023-08-06T00:47:23;0.93;;;0.73;;
6348;SDS011;3207;42.648;23.406;2023-08-06T00:49:50;2.42;;;0.90;;
6348;SDS011;3207;42.648;23.406;2023-08-06T00:52:17;0.80;;;0.80;;
6348;SDS011;3207;42.648;23.406;2023-08-06T00:54:44;2.78;;;1.15;;
6348;SDS011;3207;42.648;23.406;2023-08-06T00:57:11;0.90;;;0.68;;
6348;SDS011;3207;42.648;23.406;2023-08-06T00:59:38;1.42;;;1.05;;
6348;SDS011;3207;42.648;23.406;2023-08-06T01:02:05;0.82;;;0.55;;
6348;SDS011;3207;42.648;23.406;2023-08-06T01:04:34;1.55;;;0.93;;
6348;SDS011;3207;42.648;23.406;2023-08-06T01:07:03;0.90;;;0.90;;
6348;SDS011;3207;42.648;23.406;2023-08-06T01:09:44;0.73;;;0.60;;
6348;SDS011;3207;42.648;23.406;2023-08-06T01:12:18;0.82;;;0.80;;
6348;SDS011;3207;42.648;23.406;2023-08-06T01:14:53;1.23;;;0.68;;
6348;SDS011;3207;42.648;23.406;2023-08-06T01:17:28;1.52;;;0.90;;
6348;SDS011;3207;42.648;23.406;2023-08-06T01:19:58;2.08;;;0.70;;
6348;SDS011;3207;42.648;23.406;2023-08-06T01:22:26;2.38;;;0.80;;
6348;SDS011;3207;42.648;23.406;2023-08-06T01:24:53;2.42;;;0.73;;
6348;SDS011;3207;42.648;23.406;2023-08-06T01:27:23;2.63;;;0.73;;
6348;SDS011;3207;42.648;23.406;2023-08-06T01:29:56;0.80;;;0.60;;
6348;SDS011;3207;42.648;23.406;2023-08-06T01:32:29;1.67;;;0.85;;
6348;SDS011;3207;42.648;23.406;2023-08-06T01:35:00;0.80;;;0.40;;
6348;SDS011;3207;42.648;23.406;2023-08-06T01:37:31;0.55;;;0.55;;
6348;SDS011;3207;42.648;23.406;2023-08-06T01:39:58;0.82;;;0.60;;
6348;SDS011;3207;42.648;23.406;2023-08-06T01:42:25;1.17;;;0.52;;
6348;SDS011;3207;42.648;23.406;2023-08-06T01:44:52;1.58;;;0.88;;
6348;SDS011;3207;42.648;23.406;2023-08-06T01:47:19;0.57;;;0.52;;
6348;SDS011;3207;42.648;23.406;2023-08-06T01:49:46;0.60;;;0.60;;
6348;SDS011;3207;42.648;23.406;2023-08-06T01:52:12;0.45;;;0.45;;
6348;SDS011;3207;42.648;23.406;2023-08-06T01:54:41;0.70;;;0.70;;
6348;SDS011;3207;42.648;23.406;2023-08-06T01:57:07;1.05;;;0.95;;
6348;SDS011;3207;42.648;23.406;2023-08-06T01:59:34;4.45;;;0.73;;
6348;SDS011;3207;42.648;23.406;2023-08-06T02:02:01;0.52;;;0.50;;
6348;SDS011;3207;42.648;23.406;2023-08-06T02:04:28;0.90;;;0.60;;
6348;SDS011;3207;42.648;23.406;2023-08-06T02:06:55;0.70;;;0.70;;
6348;SDS011;3207;42.648;23.406;2023-08-06T02:09:22;0.50;;;0.50;;
6348;SDS011;3207;42.648;23.406;2023-08-06T02:11:50;1.00;;;0.68;;
6348;SDS011;3207;42.648;23.406;2023-08-06T02:14:17;0.77;;;0.43;;
6348;SDS011;3207;42.648;23.406;2023-08-06T02:16:44;2.35;;;0.68;;
6348;SDS011;3207;42.648;23.406;2023-08-06T02:19:10;0.77;;;0.75;;
6348;SDS011;3207;42.648;23.406;2023-08-06T02:21:37;0.75;;;0.60;;
6348;SDS011;3207;42.648;23.406;2023-08-06T02:24:04;0.50;;;0.50;;
6348;SDS011;3207;42.648;23.406;2023-08-06T02:26:31;1.10;;;0.90;;
6348;SDS011;3207;42.648;23.406;2023-08-06T02:28:59;1.40;;;0.77;;
6348;SDS011;3207;42.648;23.406;2023-08-06T02:31:25;0.80;;;0.80;;
6348;SDS011;3207;42.648;23.406;2023-08-06T02:33:52;2.67;;;0.95;;
6348;SDS011;3207;42.648;23.406;2023-08-06T02:36:20;1.48;;;1.38;;
6348;SDS011;3207;42.648;23.406;2023-08-06T02:38:47;1.23;;;0.90;;
6348;SDS011;3207;42.648;23.406;2023-08-06T02:41:13;0.82;;;0.80;;
6348;SDS011;3207;42.648;23.406;2023-08-06T02:43:40;0.70;;;0.50;;
6348;SDS011;3207;42.648;23.406;2023-08-06T02:46:08;0.85;;;0.60;;
6348;SDS011;3207;42.648;23.406;2023-08-06T02:48:35;0.80;;;0.68;;
6348;SDS011;3207;42.648;23.406;2023-08-06T02:51:02;1.67;;;0.88;;
6348;SDS011;3207;42.648;23.406;2023-08-06T02:53:29;0.38;;;0.35;;
6348;SDS011;3207;42.648;23.406;2023-08-06T02:55:56;0.60;;;0.55;;
6348;SDS011;3207;42.648;23.406;2023-08-06T02:58:24;2.45;;;0.50;;
6348;SDS011;3207;42.648;23.406;2023-08-06T03:01:00;0.50;;;0.50;;
6348;SDS011;3207;42.648;23.406;2023-08-06T03:03:30;0.98;;;0.60;;
6348;SDS011;3207;42.648;23.406;2023-08-06T03:05:57;1.33;;;0.73;;
6348;SDS011;3207;42.648;23.406;2023-08-06T03:08:24;1.80;;;0.55;;
6348;SDS011;3207;42.648;23.406;2023-08-06T03:10:51;1.92;;;0.40;;
6348;SDS011;3207;42.648;23.406;2023-08-06T03:13:18;9.13;;;1.05;;
6348;SDS011;3207;42.648;23.406;2023-08-06T03:15:51;3.67;;;0.63;;
6348;SDS011;3207;42.648;23.406;2023-08-06T03:18:19;0.57;;;0.57;;
6348;SDS011;3207;42.648;23.406;2023-08-06T03:20:47;1.80;;;0.43;;
6348;SDS011;3207;42.648;23.406;2023-08-06T03:23:14;0.50;;;0.50;;
6348;SDS011;3207;42.648;23.406;2023-08-06T03:25:41;5.00;;;0.77;;
6348;SDS011;3207;42.648;23.406;2023-08-06T03:28:08;0.63;;;0.30;;
6348;SDS011;3207;42.648;23.406;2023-08-06T03:30:34;1.65;;;0.65;;
6348;SDS011;3207;42.648;23.406;2023-08-06T03:33:01;4.63;;;0.82;;
6348;SDS011;3207;42.648;23.406;2023-08-06T03:35:28;0.52;;;0.52;;
6348;SDS011;3207;42.648;23.406;2023-08-06T03:37:56;1.75;;;0.50;;
6348;SDS011;3207;42.648;23.406;2023-08-06T03:40:23;3.35;;;0.40;;
6348;SDS011;3207;42.648;23.406;2023-08-06T03:42:50;0.60;;;0.57;;
6348;SDS011;3207;42.648;23.406;2023-08-06T03:45:17;3.75;;;0.50;;
6348;SDS011;3207;42.648;23.406;2023-08-06T03:47:43;1.10;;;1.00;;
6348;SDS011;3207;42.648;23.406;2023-08-06T03:50:10;1.27;;;0.70;;
6348;SDS011;3207;42.648;23.406;2023-08-06T03:52:37;0.82;;;0.70;;
6348;SDS011;3207;42.648;23.406;2023-08-06T03:55:05;1.60;;;0.90;;
6348;SDS011;3207;42.648;23.406;2023-08-06T03:57:32;1.40;;;1.17;;
6348;SDS011;3207;42.648;23.406;2023-08-06T03:59:59;0.70;;;0.68;;
6348;SDS011;3207;42.648;23.406;2023-08-06T04:02:26;0.90;;;0.80;;
6348;SDS011;3207;42.648;23.406;2023-08-06T04:04:53;0.63;;;0.63;;
6348;SDS011;3207;42.648;23.406;2023-08-06T04:07:20;2.40;;;0.68;;
6348;SDS011;3207;42.648;23.406;2023-08-06T04:09:53;0.70;;;0.60;;
6348;SDS011;3207;42.648;23.406;2023-08-06T04:12:22;1.13;;;0.60;;
6348;SDS011;3207;42.648;23.406;2023-08-06T04:14:49;1.25;;;0.70;;
6348;SDS011;3207;42.648;23.406;2023-08-06T04:17:16;1.77;;;0.88;;
6348;SDS011;3207;42.648;23.406;2023-08-06T04:19:45;1.20;;;1.00;;
6348;SDS011;3207;42.648;23.406;2023-08-06T04:22:13;2.95;;;1.10;;
6348;SDS011;3207;42.648;23.406;2023-08-06T04:24:40;1.13;;;0.60;;
6348;SDS011;3207;42.648;23.406;2023-08-06T04:27:06;0.73;;;0.50;;
6348;SDS011;3207;42.648;23.406;2023-08-06T04:29:36;0.80;;;0.80;;
6348;SDS011;3207;42.648;23.406;2023-08-06T04:32:03;2.47;;;0.82;;
6348;SDS011;3207;42.648;23.406;2023-08-06T04:34:32;0.47;;;0.47;;
6348;SDS011;3207;42.648;23.406;2023-08-06T04:36:59;0.63;;;0.40;;
6348;SDS011;3207;42.648;23.406;2023-08-06T04:39:26;0.93;;;0.60;;
6348;SDS011;3207;42.648;23.406;2023-08-06T04:41:54;1.58;;;0.47;;
6348;SDS011;3207;42.648;23.406;2023-08-06T04:44:21;0.40;;;0.40;;
6348;SDS011;3207;42.648;23.406;2023-08-06T04:46:50;0.40;;;0.40;;
6348;SDS011;3207;42.648;23.406;2023-08-06T04:49:17;0.40;;;0.40;;
6348;SDS011;3207;42.648;23.406;2023-08-06T04:51:43;0.32;;;0.32;;
6348;SDS011;3207;42.648;23.406;2023-08-06T04:54:10;0.30;;;0.30;;
6348;SDS011;3207;42.648;23.406;2023-08-06T04:56:37;1.38;;;0.65;;
6348;SDS011;3207;42.648;23.406;2023-08-06T04:59:04;2.25;;;0.50;;
6348;SDS011;3207;42.648;23.406;2023-08-06T05:01:31;1.95;;;0.50;;
6348;SDS011;3207;42.648;23.406;2023-08-06T05:03:59;2.25;;;0.52;;
6348;SDS011;3207;42.648;23.406;2023-08-06T05:06:26;0.70;;;0.70;;
6348;SDS011;3207;42.648;23.406;2023-08-06T05:08:52;0.73;;;0.73;;
6348;SDS011;3207;42.648;23.406;2023-08-06T05:11:19;0.45;;;0.45;;
6348;SDS011;3207;42.648;23.406;2023-08-06T05:13:46;0.40;;;0.40;;
6348;SDS011;3207;42.648;23.406;2023-08-06T05:16:13;2.05;;;0.40;;
6348;SDS011;3207;42.648;23.406;2023-08-06T05:18:39;0.80;;;0.73;;
6348;SDS011;3207;42.648;23.406;2023-08-06T05:21:08;0.70;;;0.40;;
6348;SDS011;3207;42.648;23.406;2023-08-06T05:23:35;1.95;;;0.40;;
6348;SDS011;3207;42.648;23.406;2023-08-06T05:26:01;0.65;;;0.65;;
6348;SDS011;3207;42.648;23.406;2023-08-06T05:28:28;0.55;;;0.50;;
6348;SDS011;3207;42.648;23.406;2023-08-06T05:30:55;1.50;;;0.40;;
6348;SDS011;3207;42.648;23.406;2023-08-06T05:33:22;0.30;;;0.30;;
6348;SDS011;3207;42.648;23.406;2023-08-06T05:35:49;0.40;;;0.40;;
6348;SDS011;3207;42.648;23.406;2023-08-06T05:38:17;0.50;;;0.50;;
6348;SDS011;3207;42.648;23.406;2023-08-06T05:40:44;2.10;;;0.47;;
6348;SDS011;3207;42.648;23.406;2023-08-06T05:43:11;0.50;;;0.45;;
6348;SDS011;3207;42.648;23.406;2023-08-06T05:45:38;0.75;;;0.52;;
6348;SDS011;3207;42.648;23.406;2023-08-06T05:48:04;0.50;;;0.50;;
6348;SDS011;3207;42.648;23.406;2023-08-06T05:50:31;0.82;;;0.43;;
6348;SDS011;3207;42.648;23.406;2023-08-06T05:52:58;0.57;;;0.45;;
6348;SDS011;3207;42.648;23.406;2023-08-06T05:55:26;0.50;;;0.50;;
6348;SDS011;3207;42.648;23.406;2023-08-06T05:57:53;0.40;;;0.40;;
6348;SDS011;3207;42.648;23.406;2023-08-06T06:00:20;0.50;;;0.47;;
6348;SDS011;3207;42.648;23.406;2023-08-06T06:02:48;0.50;;;0.47;;
6348;SDS011;3207;42.648;23.406;2023-08-06T06:05:15;0.40;;;0.40;;
6348;SDS011;3207;42.648;23.406;2023-08-06T06:07:42;2.00;;;0.43;;
6348;SDS011;3207;42.648;23.406;2023-08-06T06:10:09;0.70;;;0.50;;
6348;SDS011;3207;42.648;23.406;2023-08-06T06:12:39;0.63;;;0.63;;
6348;SDS011;3207;42.648;23.406;2023-08-06T06:15:06;2.92;;;0.50;;
6348;SDS011;3207;42.648;23.406;2023-08-06T06:17:33;0.40;;;0.40;;
6348;SDS011;3207;42.648;23.406;2023-08-06T06:20:00;0.68;;;0.68;;
6348;SDS011;3207;42.648;23.406;2023-08-06T06:22:29;0.75;;;0.57;;
6348;SDS011;3207;42.648;23.406;2023-08-06T06:24:56;0.82;;;0.70;;
6348;SDS011;3207;42.648;23.406;2023-08-06T06:27:23;2.17;;;0.70;;
6348;SDS011;3207;42.648;23.406;2023-08-06T06:29:51;5.15;;;1.92;;
6348;SDS011;3207;42.648;23.406;2023-08-06T06:32:19;8.57;;;3.70;;
6348;SDS011;3207;42.648;23.406;2023-08-06T06:34:46;17.52;;;7.28;;
6348;SDS011;3207;42.648;23.406;2023-08-06T06:37:13;26.15;;;12.32;;
6348;SDS011;3207;42.648;23.406;2023-08-06T06:39:40;10.68;;;4.72;;
6348;SDS011;3207;42.648;23.406;2023-08-06T06:42:07;20.67;;;7.90;;
6348;SDS011;3207;42.648;23.406;2023-08-06T06:44:33;6.07;;;2.10;;
6348;SDS011;3207;42.648;23.406;2023-08-06T06:47:02;12.88;;;5.10;;
6348;SDS011;3207;42.648;23.406;2023-08-06T06:49:29;22.08;;;7.30;;
6348;SDS011;3207;42.648;23.406;2023-08-06T06:51:55;15.63;;;6.65;;
6348;SDS011;3207;42.648;23.406;2023-08-06T06:54:22;17.90;;;7.03;;
6348;SDS011;3207;42.648;23.406;2023-08-06T06:56:49;14.30;;;6.80;;
6348;SDS011;3207;42.648;23.406;2023-08-06T06:59:16;9.85;;;4.68;;
6348;SDS011;3207;42.648;23.406;2023-08-06T07:01:43;8.00;;;3.45;;
6348;SDS011;3207;42.648;23.406;2023-08-06T07:04:11;3.45;;;1.98;;
6348;SDS011;3207;42.648;23.406;2023-08-06T07:06:38;3.47;;;2.08;;
6348;SDS011;3207;42.648;23.406;2023-08-06T07:09:05;3.45;;;2.47;;
6348;SDS011;3207;42.648;23.406;2023-08-06T07:11:32;4.38;;;1.90;;
6348;SDS011;3207;42.648;23.406;2023-08-06T07:13:58;3.22;;;1.45;;
6348;SDS011;3207;42.648;23.406;2023-08-06T07:16:25;3.13;;;1.55;;
6348;SDS011;3207;42.648;23.406;2023-08-06T07:18:53;1.10;;;1.00;;
6348;SDS011;3207;42.648;23.406;2023-08-06T07:21:22;1.63;;;1.17;;
6348;SDS011;3207;42.648;23.406;2023-08-06T07:23:49;3.47;;;1.38;;
6348;SDS011;3207;42.648;23.406;2023-08-06T07:26:16;5.28;;;1.20;;
6348;SDS011;3207;42.648;23.406;2023-08-06T07:28:42;2.22;;;1.50;;
6348;SDS011;3207;42.648;23.406;2023-08-06T07:31:09;1.50;;;1.13;;
6348;SDS011;3207;42.648;23.406;2023-08-06T07:33:37;3.75;;;1.15;;
6348;SDS011;3207;42.648;23.406;2023-08-06T07:36:10;1.65;;;1.17;;
6348;SDS011;3207;42.648;23.406;2023-08-06T07:38:39;2.42;;;1.20;;
6348;SDS011;3207;42.648;23.406;2023-08-06T07:41:06;4.25;;;1.50;;
6348;SDS011;3207;42.648;23.406;2023-08-06T07:43:33;0.95;;;0.85;;
6348;SDS011;3207;42.648;23.406;2023-08-06T07:46:01;2.45;;;1.40;;
6348;SDS011;3207;42.648;23.406;2023-08-06T07:48:28;1.73;;;1.23;;
6348;SDS011;3207;42.648;23.406;2023-08-06T07:50:55;1.88;;;1.40;;
6348;SDS011;3207;42.648;23.406;2023-08-06T07:53:22;3.03;;;1.58;;
6348;SDS011;3207;42.648;23.406;2023-08-06T07:55:53;12.68;;;4.97;;
6348;SDS011;3207;42.648;23.406;2023-08-06T07:58:20;14.40;;;5.45;;
6348;SDS011;3207;42.648;23.406;2023-08-06T08:00:47;10.40;;;4.60;;
6348;SDS011;3207;42.648;23.406;2023-08-06T08:03:14;23.50;;;8.95;;
6348;SDS011;3207;42.648;23.406;2023-08-06T08:05:42;27.08;;;11.25;;
6348;SDS011;3207;42.648;23.406;2023-08-06T08:08:09;35.65;;;12.98;;
6348;SDS011;3207;42.648;23.406;2023-08-06T08:10:36;27.52;;;10.30;;
6348;SDS011;3207;42.648;23.406;2023-08-06T08:13:05;13.20;;;5.13;;
6348;SDS011;3207;42.648;23.406;2023-08-06T08:15:32;5.13;;;1.98;;
6348;SDS011;3207;42.648;23.406;2023-08-06T08:18:00;3.00;;;1.27;;
6348;SDS011;3207;42.648;23.406;2023-08-06T08:20:27;3.42;;;1.50;;
6348;SDS011;3207;42.648;23.406;2023-08-06T08:22:57;2.40;;;1.33;;
6348;SDS011;3207;42.648;23.406;2023-08-06T08:25:25;5.07;;;1.45;;
6348;SDS011;3207;42.648;23.406;2023-08-06T08:27:52;4.32;;;1.88;;
6348;SDS011;3207;42.648;23.406;2023-08-06T08:30:20;5.70;;;2.65;;
6348;SDS011;3207;42.648;23.406;2023-08-06T08:32:47;4.53;;;2.38;;
6348;SDS011;3207;42.648;23.406;2023-08-06T08:35:15;2.95;;;2.35;;
6348;SDS011;3207;42.648;23.406;2023-08-06T08:37:42;6.90;;;1.90;;
6348;SDS011;3207;42.648;23.406;2023-08-06T08:40:09;2.13;;;1.40;;
6348;SDS011;3207;42.648;23.406;2023-08-06T08:42:36;2.95;;;1.55;;
6348;SDS011;3207;42.648;23.406;2023-08-06T08:45:04;2.35;;;1.73;;
6348;SDS011;3207;42.648;23.406;2023-08-06T08:47:35;2.53;;;1.42;;
6348;SDS011;3207;42.648;23.406;2023-08-06T08:50:03;2.33;;;1.30;;
6348;SDS011;3207;42.648;23.406;2023-08-06T08:52:33;1.63;;;1.05;;
6348;SDS011;3207;42.648;23.406;2023-08-06T08:55:02;1.98;;;1.50;;
6348;SDS011;3207;42.648;23.406;2023-08-06T08:57:28;1.50;;;1.10;;
6348;SDS011;3207;42.648;23.406;2023-08-06T08:59:55;1.60;;;1.50;;
6348;SDS011;3207;42.648;23.406;2023-08-06T09:02:22;1.42;;;1.33;;
6348;SDS011;3207;42.648;23.406;2023-08-06T09:04:56;1.35;;;1.10;;
6348;SDS011;3207;42.648;23.406;2023-08-06T09:07:27;3.90;;;1.10;;
6348;SDS011;3207;42.648;23.406;2023-08-06T09:09:58;1.63;;;1.40;;
6348;SDS011;3207;42.648;23.406;2023-08-06T09:12:29;10.75;;;5.63;;
6348;SDS011;3207;42.648;23.406;2023-08-06T09:14:56;2.25;;;1.38;;
6348;SDS011;3207;42.648;23.406;2023-08-06T09:17:22;2.58;;;1.20;;
6348;SDS011;3207;42.648;23.406;2023-08-06T09:19:49;1.48;;;1.33;;
6348;SDS011;3207;42.648;23.406;2023-08-06T09:22:17;3.28;;;2.10;;
6348;SDS011;3207;42.648;23.406;2023-08-06T09:24:44;2.03;;;1.55;;
6348;SDS011;3207;42.648;23.406;2023-08-06T09:27:11;4.07;;;1.52;;
6348;SDS011;3207;42.648;23.406;2023-08-06T09:29:40;1.67;;;1.17;;
6348;SDS011;3207;42.648;23.406;2023-08-06T09:32:08;1.70;;;1.23;;
6348;SDS011;3207;42.648;23.406;2023-08-06T09:34:35;3.20;;;1.35;;
6348;SDS011;3207;42.648;23.406;2023-08-06T09:37:04;5.20;;;1.77;;
6348;SDS011;3207;42.648;23.406;2023-08-06T09:39:32;2.85;;;1.40;;
6348;SDS011;3207;42.648;23.406;2023-08-06T09:42:00;1.00;;;0.85;;
6348;SDS011;3207;42.648;23.406;2023-08-06T09:44:32;2.05;;;1.45;;
6348;SDS011;3207;42.648;23.406;2023-08-06T09:47:00;2.08;;;1.20;;
6348;SDS011;3207;42.648;23.406;2023-08-06T09:49:28;7.43;;;2.03;;
6348;SDS011;3207;42.648;23.406;2023-08-06T09:52:08;3.47;;;1.20;;
6348;SDS011;3207;42.648;23.406;2023-08-06T09:54:39;1.60;;;1.38;;
6348;SDS011;3207;42.648;23.406;2023-08-06T09:57:06;2.80;;;1.70;;
6348;SDS011;3207;42.648;23.406;2023-08-06T09:59:33;2.92;;;1.00;;
6348;SDS011;3207;42.648;23.406;2023-08-06T10:02:01;1.23;;;1.10;;
6348;SDS011;3207;42.648;23.406;2023-08-06T10:04:34;1.20;;;1.08;;
6348;SDS011;3207;42.648;23.406;2023-08-06T10:07:01;1.48;;;1.13;;
6348;SDS011;3207;42.648;23.406;2023-08-06T10:09:28;3.63;;;2.13;;
6348;SDS011;3207;42.648;23.406;2023-08-06T10:11:56;2.55;;;1.20;;
6348;SDS011;3207;42.648;23.406;2023-08-06T10:14:24;1.40;;;1.00;;
6348;SDS011;3207;42.648;23.406;2023-08-06T10:16:55;5.88;;;1.48;;
6348;SDS011;3207;42.648;23.406;2023-08-06T10:19:24;1.25;;;1.15;;
6348;SDS011;3207;42.648;23.406;2023-08-06T10:22:10;1.25;;;1.15;;
6348;SDS011;3207;42.648;23.406;2023-08-06T10:24:47;1.00;;;0.90;;
6348;SDS011;3207;42.648;23.406;2023-08-06T10:30:20;3.58;;;1.40;;
6348;SDS011;3207;42.648;23.406;2023-08-06T10:32:48;1.40;;;1.05;;
6348;SDS011;3207;42.648;23.406;2023-08-06T10:37:59;1.35;;;1.00;;
6348;SDS011;3207;42.648;23.406;2023-08-06T10:40:29;3.85;;;1.20;;
6348;SDS011;3207;42.648;23.406;2023-08-06T10:42:59;1.45;;;1.35;;
6348;SDS011;3207;42.648;23.406;2023-08-06T10:45:27;2.28;;;1.40;;
6348;SDS011;3207;42.648;23.406;2023-08-06T10:47:55;2.00;;;1.00;;
6348;SDS011;3207;42.648;23.406;2023-08-06T10:50:23;1.42;;;0.90;;
6348;SDS011;3207;42.648;23.406;2023-08-06T10:52:50;0.90;;;0.90;;
6348;SDS011;3207;42.648;23.406;2023-08-06T10:55:24;4.03;;;1.10;;
6348;SDS011;3207;42.648;23.406;2023-08-06T10:57:52;1.20;;;1.08;;
6348;SDS011;3207;42.648;23.406;2023-08-06T11:00:21;3.33;;;1.30;;
6348;SDS011;3207;42.648;23.406;2023-08-06T11:02:49;3.33;;;1.58;;
6348;SDS011;3207;42.648;23.406;2023-08-06T11:05:18;0.93;;;0.88;;
6348;SDS011;3207;42.648;23.406;2023-08-06T11:07:45;2.97;;;0.70;;
6348;SDS011;3207;42.648;23.406;2023-08-06T11:10:14;0.98;;;0.90;;
6348;SDS011;3207;42.648;23.406;2023-08-06T11:12:41;1.60;;;1.40;;
6348;SDS011;3207;42.648;23.406;2023-08-06T11:15:08;1.75;;;1.35;;
6348;SDS011;3207;42.648;23.406;2023-08-06T11:17:39;2.47;;;1.50;;
6348;SDS011;3207;42.648;23.406;2023-08-06T11:20:08;1.02;;;0.88;;
6348;SDS011;3207;42.648;23.406;2023-08-06T11:22:35;1.70;;;1.60;;
6348;SDS011;3207;42.648;23.406;2023-08-06T11:25:03;1.30;;;1.10;;
6348;SDS011;3207;42.648;23.406;2023-08-06T11:27:31;3.33;;;2.38;;
6348;SDS011;3207;42.648;23.406;2023-08-06T11:29:58;1.25;;;0.90;;
6348;SDS011;3207;42.648;23.406;2023-08-06T11:32:25;1.17;;;0.95;;
6348;SDS011;3207;42.648;23.406;2023-08-06T11:34:54;2.75;;;1.10;;
6348;SDS011;3207;42.648;23.406;2023-08-06T11:37:22;3.72;;;1.80;;
6348;SDS011;3207;42.648;23.406;2023-08-06T11:39:50;6.68;;;0.90;;
6348;SDS011;3207;42.648;23.406;2023-08-06T11:42:18;10.73;;;1.50;;
6348;SDS011;3207;42.648;23.406;2023-08-06T11:44:45;1.88;;;0.88;;
6348;SDS011;3207;42.648;23.406;2023-08-06T11:47:12;1.60;;;1.05;;
6348;SDS011;3207;42.648;23.406;2023-08-06T11:49:41;3.92;;;1.30;;
6348;SDS011;3207;42.648;23.406;2023-08-06T11:52:15;4.05;;;1.52;;
6348;SDS011;3207;42.648;23.406;2023-08-06T11:54:44;0.90;;;0.88;;
6348;SDS011;3207;42.648;23.406;2023-08-06T11:57:12;2.15;;;1.10;;
6348;SDS011;3207;42.648;23.406;2023-08-06T11:59:39;1.52;;;0.95;;
6348;SDS011;3207;42.648;23.406;2023-08-06T12:02:07;1.00;;;0.70;;
6348;SDS011;3207;42.648;23.406;2023-08-06T12:07:31;5.45;;;0.90;;
6348;SDS011;3207;42.648;23.406;2023-08-06T12:09:59;5.10;;;1.33;;
6348;SDS011;3207;42.648;23.406;2023-08-06T12:12:26;3.15;;;0.88;;
6348;SDS011;3207;42.648;23.406;2023-08-06T12:14:52;0.80;;;0.80;;
6348;SDS011;3207;42.648;23.406;2023-08-06T12:17:20;0.55;;;0.55;;
6348;SDS011;3207;42.648;23.406;2023-08-06T12:19:47;3.72;;;1.00;;
6348;SDS011;3207;42.648;23.406;2023-08-06T12:22:14;0.82;;;0.73;;
6348;SDS011;3207;42.648;23.406;2023-08-06T12:24:42;0.95;;;0.60;;
6348;SDS011;3207;42.648;23.406;2023-08-06T12:27:10;1.00;;;0.68;;
6348;SDS011;3207;42.648;23.406;2023-08-06T12:29:37;1.13;;;0.70;;
6348;SDS011;3207;42.648;23.406;2023-08-06T12:32:06;1.52;;;1.02;;
6348;SDS011;3207;42.648;23.406;2023-08-06T12:34:33;0.70;;;0.70;;
6348;SDS011;3207;42.648;23.406;2023-08-06T12:37:00;0.50;;;0.50;;
6348;SDS011;3207;42.648;23.406;2023-08-06T12:39:27;1.25;;;0.75;;
6348;SDS011;3207;42.648;23.406;2023-08-06T12:41:56;0.73;;;0.45;;
6348;SDS011;3207;42.648;23.406;2023-08-06T12:44:23;1.25;;;0.70;;
6348;SDS011;3207;42.648;23.406;2023-08-06T12:46:50;1.50;;;0.70;;
6348;SDS011;3207;42.648;23.406;2023-08-06T12:49:17;0.60;;;0.60;;
6348;SDS011;3207;42.648;23.406;2023-08-06T12:51:46;0.85;;;0.80;;
6348;SDS011;3207;42.648;23.406;2023-08-06T12:54:13;0.70;;;0.70;;
6348;SDS011;3207;42.648;23.406;2023-08-06T12:56:39;0.50;;;0.50;;
6348;SDS011;3207;42.648;23.406;2023-08-06T12:59:08;1.95;;;0.40;;
6348;SDS011;3207;42.648;23.406;2023-08-06T13:01:34;0.50;;;0.50;;
6348;SDS011;3207;42.648;23.406;2023-08-06T13:04:01;1.52;;;0.85;;
6348;SDS011;3207;42.648;23.406;2023-08-06T13:06:28;3.35;;;1.35;;
6348;SDS011;3207;42.648;23.406;2023-08-06T13:08:56;14.32;;;5.93;;
6348;SDS011;3207;42.648;23.406;2023-08-06T13:11:23;12.52;;;6.45;;
6348;SDS011;3207;42.648;23.406;2023-08-06T13:13:50;6.75;;;2.15;;
6348;SDS011;3207;42.648;23.406;2023-08-06T13:16:18;11.73;;;4.63;;
6348;SDS011;3207;42.648;23.406;2023-08-06T13:18:45;4.32;;;2.05;;
6348;SDS011;3207;42.648;23.406;2023-08-06T13:21:12;2.50;;;1.80;;
6348;SDS011;3207;42.648;23.406;2023-08-06T13:23:39;7.18;;;3.00;;
6348;SDS011;3207;42.648;23.406;2023-08-06T13:26:06;11.63;;;5.15;;
6348;SDS011;3207;42.648;23.406;2023-08-06T13:28:32;4.97;;;2.17;;
6348;SDS011;3207;42.648;23.406;2023-08-06T13:30:59;8.93;;;3.95;;
6348;SDS011;3207;42.648;23.406;2023-08-06T13:33:28;4.00;;;2.28;;
6348;SDS011;3207;42.648;23.406;2023-08-06T13:35:55;4.43;;;2.33;;
6348;SDS011;3207;42.648;23.406;2023-08-06T13:38:22;1.13;;;0.95;;
6348;SDS011;3207;42.648;23.406;2023-08-06T13:40:49;1.08;;;0.60;;
6348;SDS011;3207;42.648;23.406;2023-08-06T13:43:16;2.72;;;1.38;;
6348;SDS011;3207;42.648;23.406;2023-08-06T13:45:44;2.85;;;1.50;;
6348;SDS011;3207;42.648;23.406;2023-08-06T13:48:11;2.92;;;1.40;;
6348;SDS011;3207;42.648;23.406;2023-08-06T13:50:39;0.95;;;0.55;;
6348;SDS011;3207;42.648;23.406;2023-08-06T13:53:06;1.48;;;0.98;;
6348;SDS011;3207;42.648;23.406;2023-08-06T13:55:33;0.77;;;0.60;;
6348;SDS011;3207;42.648;23.406;2023-08-06T13:58:00;0.52;;;0.52;;
6348;SDS011;3207;42.648;23.406;2023-08-06T14:00:26;0.80;;;0.80;;
6348;SDS011;3207;42.648;23.406;2023-08-06T14:02:53;0.68;;;0.68;;
6348;SDS011;3207;42.648;23.406;2023-08-06T14:05:20;2.17;;;0.80;;
6348;SDS011;3207;42.648;23.406;2023-08-06T14:07:48;0.70;;;0.65;;
6348;SDS011;3207;42.648;23.406;2023-08-06T14:10:16;1.92;;;0.30;;
6348;SDS011;3207;42.648;23.406;2023-08-06T14:12:42;0.65;;;0.60;;
6348;SDS011;3207;42.648;23.406;2023-08-06T14:15:15;0.65;;;0.65;;
6348;SDS011;3207;42.648;23.406;2023-08-06T14:17:42;1.55;;;0.40;;
6348;SDS011;3207;42.648;23.406;2023-08-06T14:20:09;1.52;;;0.50;;
6348;SDS011;3207;42.648;23.406;2023-08-06T14:22:37;3.25;;;0.55;;
6348;SDS011;3207;42.648;23.406;2023-08-06T14:25:05;0.40;;;0.40;;
6348;SDS011;3207;42.648;23.406;2023-08-06T14:27:32;0.70;;;0.50;;
6348;SDS011;3207;42.648;23.406;2023-08-06T14:30:00;0.50;;;0.50;;
6348;SDS011;3207;42.648;23.406;2023-08-06T14:32:28;2.25;;;0.60;;
6348;SDS011;3207;42.648;23.406;2023-08-06T14:34:55;0.85;;;0.50;;
6348;SDS011;3207;42.648;23.406;2023-08-06T14:37:22;0.30;;;0.30;;
6348;SDS011;3207;42.648;23.406;2023-08-06T14:39:49;0.32;;;0.28;;
6348;SDS011;3207;42.648;23.406;2023-08-06T14:42:18;1.05;;;0.30;;
6348;SDS011;3207;42.648;23.406;2023-08-06T14:44:45;0.50;;;0.30;;
6348;SDS011;3207;42.648;23.406;2023-08-06T14:47:11;1.00;;;0.30;;
6348;SDS011;3207;42.648;23.406;2023-08-06T14:49:38;0.45;;;0.40;;
6348;SDS011;3207;42.648;23.406;2023-08-06T14:52:05;0.30;;;0.30;;
6348;SDS011;3207;42.648;23.406;2023-08-06T14:54:32;0.40;;;0.40;;
6348;SDS011;3207;42.648;23.406;2023-08-06T14:56:59;0.43;;;0.35;;
6348;SDS011;3207;42.648;23.406;2023-08-06T14:59:27;0.40;;;0.40;;
6348;SDS011;3207;42.648;23.406;2023-08-06T15:01:54;0.43;;;0.40;;
6348;SDS011;3207;42.648;23.406;2023-08-06T15:04:21;0.32;;;0.32;;
6348;SDS011;3207;42.648;23.406;2023-08-06T15:06:49;0.50;;;0.45;;
6348;SDS011;3207;42.648;23.406;2023-08-06T15:09:15;0.50;;;0.43;;
6348;SDS011;3207;42.648;23.406;2023-08-06T15:11:42;2.03;;;0.80;;